New York, New York
Traffic Map
Current Weather Conditions
New York, New York
Clear
Clear
26°
Feels Like: 27°
Wind Chill: 26° Ceiling: Unl
Heat Index: 27° Visibility: 10mi
Dew Point: 16° Wind: 5mph
Humidity: 52% Direction: 30° (NNE)
Pressure: 29.97in Gusts: 0mph
Raw Report DataKNYC 240751Z AUTO 03004KT 10SM CLR 26/16 A2997 RMK AO2 SLP137 T02610156 $
Traffic Incident Summary
Active as of:
Severity:
Category:
InformationThere was an issue retrieving the traffic information for this location. Please try a different location or try again shortly.
Advertisements
Track Severe Weather on mobile